sensor_id;sensor_type;location;lat;lon;timestamp;P1;durP1;ratioP1;P2;durP2;ratioP2
80127;SDS011;69440;52.118;5.408;2024-02-21T00:01:16;9.00;;;3.05;;
80127;SDS011;69440;52.118;5.408;2024-02-21T00:03:43;7.45;;;2.53;;
80127;SDS011;69440;52.118;5.408;2024-02-21T00:06:10;7.97;;;2.50;;
80127;SDS011;69440;52.118;5.408;2024-02-21T00:08:36;8.48;;;2.33;;
80127;SDS011;69440;52.118;5.408;2024-02-21T00:11:03;7.07;;;2.88;;
80127;SDS011;69440;52.118;5.408;2024-02-21T00:13:30;9.50;;;2.65;;
80127;SDS011;69440;52.118;5.408;2024-02-21T00:15:57;6.05;;;2.33;;
80127;SDS011;69440;52.118;5.408;2024-02-21T00:18:23;9.55;;;2.63;;
80127;SDS011;69440;52.118;5.408;2024-02-21T00:20:55;6.65;;;2.65;;
80127;SDS011;69440;52.118;5.408;2024-02-21T00:23:22;7.85;;;2.30;;
80127;SDS011;69440;52.118;5.408;2024-02-21T00:25:49;15.25;;;3.20;;
80127;SDS011;69440;52.118;5.408;2024-02-21T00:28:16;10.50;;;2.60;;
80127;SDS011;69440;52.118;5.408;2024-02-21T00:30:42;12.20;;;2.70;;
80127;SDS011;69440;52.118;5.408;2024-02-21T00:33:09;8.95;;;2.30;;
80127;SDS011;69440;52.118;5.408;2024-02-21T00:35:35;8.70;;;2.38;;
80127;SDS011;69440;52.118;5.408;2024-02-21T00:38:02;9.55;;;3.80;;
80127;SDS011;69440;52.118;5.408;2024-02-21T00:40:29;9.05;;;2.55;;
80127;SDS011;69440;52.118;5.408;2024-02-21T00:42:56;9.40;;;2.38;;
80127;SDS011;69440;52.118;5.408;2024-02-21T00:45:23;8.23;;;2.53;;
80127;SDS011;69440;52.118;5.408;2024-02-21T00:47:49;7.05;;;2.33;;
80127;SDS011;69440;52.118;5.408;2024-02-21T00:50:16;8.55;;;2.20;;
80127;SDS011;69440;52.118;5.408;2024-02-21T00:52:42;8.75;;;2.75;;
80127;SDS011;69440;52.118;5.408;2024-02-21T00:55:09;11.02;;;2.90;;
80127;SDS011;69440;52.118;5.408;2024-02-21T00:57:37;6.53;;;2.17;;
80127;SDS011;69440;52.118;5.408;2024-02-21T01:00:03;7.78;;;2.35;;
80127;SDS011;69440;52.118;5.408;2024-02-21T01:02:30;7.72;;;2.35;;
80127;SDS011;69440;52.118;5.408;2024-02-21T01:05:00;9.30;;;2.60;;
80127;SDS011;69440;52.118;5.408;2024-02-21T01:07:26;10.90;;;3.42;;
80127;SDS011;69440;52.118;5.408;2024-02-21T01:09:53;8.82;;;2.45;;
80127;SDS011;69440;52.118;5.408;2024-02-21T01:12:19;13.27;;;2.72;;
80127;SDS011;69440;52.118;5.408;2024-02-21T01:14:46;7.20;;;2.28;;
80127;SDS011;69440;52.118;5.408;2024-02-21T01:17:12;9.32;;;2.72;;
80127;SDS011;69440;52.118;5.408;2024-02-21T01:19:39;10.35;;;2.47;;
80127;SDS011;69440;52.118;5.408;2024-02-21T01:22:06;9.13;;;3.38;;
80127;SDS011;69440;52.118;5.408;2024-02-21T01:24:32;13.63;;;2.72;;
80127;SDS011;69440;52.118;5.408;2024-02-21T01:26:59;11.63;;;2.58;;
80127;SDS011;69440;52.118;5.408;2024-02-21T01:29:25;7.47;;;2.97;;
80127;SDS011;69440;52.118;5.408;2024-02-21T01:31:52;8.50;;;2.63;;
80127;SDS011;69440;52.118;5.408;2024-02-21T01:34:18;11.13;;;2.95;;
80127;SDS011;69440;52.118;5.408;2024-02-21T01:36:45;11.18;;;2.97;;
80127;SDS011;69440;52.118;5.408;2024-02-21T01:39:12;11.05;;;2.70;;
80127;SDS011;69440;52.118;5.408;2024-02-21T01:41:38;10.25;;;3.20;;
80127;SDS011;69440;52.118;5.408;2024-02-21T01:44:04;9.82;;;3.00;;
80127;SDS011;69440;52.118;5.408;2024-02-21T01:46:31;8.48;;;3.25;;
80127;SDS011;69440;52.118;5.408;2024-02-21T01:48:58;12.05;;;3.33;;
80127;SDS011;69440;52.118;5.408;2024-02-21T01:51:24;17.52;;;3.88;;
80127;SDS011;69440;52.118;5.408;2024-02-21T01:53:51;12.18;;;3.55;;
80127;SDS011;69440;52.118;5.408;2024-02-21T01:56:21;10.55;;;3.33;;
80127;SDS011;69440;52.118;5.408;2024-02-21T01:58:48;5.65;;;2.90;;
80127;SDS011;69440;52.118;5.408;2024-02-21T02:01:17;12.48;;;3.53;;
80127;SDS011;69440;52.118;5.408;2024-02-21T02:03:47;8.65;;;3.20;;
80127;SDS011;69440;52.118;5.408;2024-02-21T02:06:15;9.60;;;3.30;;
80127;SDS011;69440;52.118;5.408;2024-02-21T02:08:44;9.38;;;3.28;;
80127;SDS011;69440;52.118;5.408;2024-02-21T02:11:12;11.15;;;3.03;;
80127;SDS011;69440;52.118;5.408;2024-02-21T02:13:40;11.70;;;3.47;;
80127;SDS011;69440;52.118;5.408;2024-02-21T02:16:06;6.97;;;3.28;;
80127;SDS011;69440;52.118;5.408;2024-02-21T02:18:33;9.40;;;3.60;;
80127;SDS011;69440;52.118;5.408;2024-02-21T02:21:00;7.95;;;3.25;;
80127;SDS011;69440;52.118;5.408;2024-02-21T02:23:27;11.82;;;3.60;;
80127;SDS011;69440;52.118;5.408;2024-02-21T02:25:55;6.07;;;2.92;;
80127;SDS011;69440;52.118;5.408;2024-02-21T02:28:25;6.25;;;3.33;;
80127;SDS011;69440;52.118;5.408;2024-02-21T02:30:52;9.43;;;3.72;;
80127;SDS011;69440;52.118;5.408;2024-02-21T02:33:19;10.05;;;3.63;;
80127;SDS011;69440;52.118;5.408;2024-02-21T02:35:46;12.73;;;4.10;;
80127;SDS011;69440;52.118;5.408;2024-02-21T02:38:12;8.70;;;3.22;;
80127;SDS011;69440;52.118;5.408;2024-02-21T02:40:40;10.13;;;3.78;;
80127;SDS011;69440;52.118;5.408;2024-02-21T02:43:07;7.65;;;3.40;;
80127;SDS011;69440;52.118;5.408;2024-02-21T02:45:34;10.52;;;3.72;;
80127;SDS011;69440;52.118;5.408;2024-02-21T02:48:01;12.75;;;3.45;;
80127;SDS011;69440;52.118;5.408;2024-02-21T02:50:28;9.93;;;3.80;;
80127;SDS011;69440;52.118;5.408;2024-02-21T02:52:54;11.10;;;3.45;;
80127;SDS011;69440;52.118;5.408;2024-02-21T02:55:21;9.13;;;3.20;;
80127;SDS011;69440;52.118;5.408;2024-02-21T02:57:48;12.35;;;3.15;;
80127;SDS011;69440;52.118;5.408;2024-02-21T03:00:14;8.63;;;3.47;;
80127;SDS011;69440;52.118;5.408;2024-02-21T03:02:42;10.88;;;3.13;;
80127;SDS011;69440;52.118;5.408;2024-02-21T03:05:11;10.15;;;3.10;;
80127;SDS011;69440;52.118;5.408;2024-02-21T03:07:41;8.30;;;3.33;;
80127;SDS011;69440;52.118;5.408;2024-02-21T03:10:08;7.72;;;3.17;;
80127;SDS011;69440;52.118;5.408;2024-02-21T03:12:36;6.32;;;2.72;;
80127;SDS011;69440;52.118;5.408;2024-02-21T03:15:03;6.50;;;3.13;;
80127;SDS011;69440;52.118;5.408;2024-02-21T03:17:31;6.97;;;3.38;;
80127;SDS011;69440;52.118;5.408;2024-02-21T03:20:01;8.40;;;3.15;;
80127;SDS011;69440;52.118;5.408;2024-02-21T03:22:31;6.53;;;3.15;;
80127;SDS011;69440;52.118;5.408;2024-02-21T03:24:59;10.20;;;3.25;;
80127;SDS011;69440;52.118;5.408;2024-02-21T03:27:25;15.05;;;3.80;;
80127;SDS011;69440;52.118;5.408;2024-02-21T03:29:52;7.95;;;3.50;;
80127;SDS011;69440;52.118;5.408;2024-02-21T03:32:18;13.65;;;3.97;;
80127;SDS011;69440;52.118;5.408;2024-02-21T03:34:45;8.77;;;3.58;;
80127;SDS011;69440;52.118;5.408;2024-02-21T03:37:11;8.63;;;3.45;;
80127;SDS011;69440;52.118;5.408;2024-02-21T03:39:40;11.50;;;3.70;;
80127;SDS011;69440;52.118;5.408;2024-02-21T03:42:07;10.82;;;4.00;;
80127;SDS011;69440;52.118;5.408;2024-02-21T03:44:33;10.88;;;3.70;;
80127;SDS011;69440;52.118;5.408;2024-02-21T03:47:00;7.47;;;3.65;;
80127;SDS011;69440;52.118;5.408;2024-02-21T03:49:27;9.07;;;3.70;;
80127;SDS011;69440;52.118;5.408;2024-02-21T03:51:53;8.05;;;3.60;;
80127;SDS011;69440;52.118;5.408;2024-02-21T03:54:20;10.88;;;3.97;;
80127;SDS011;69440;52.118;5.408;2024-02-21T03:56:46;9.25;;;3.97;;
80127;SDS011;69440;52.118;5.408;2024-02-21T03:59:16;6.88;;;3.20;;
80127;SDS011;69440;52.118;5.408;2024-02-21T04:01:42;10.50;;;3.70;;
80127;SDS011;69440;52.118;5.408;2024-02-21T04:04:11;11.23;;;3.33;;
80127;SDS011;69440;52.118;5.408;2024-02-21T04:06:45;9.93;;;3.20;;
80127;SDS011;69440;52.118;5.408;2024-02-21T04:09:13;11.07;;;3.15;;
80127;SDS011;69440;52.118;5.408;2024-02-21T04:11:39;11.50;;;4.10;;
80127;SDS011;69440;52.118;5.408;2024-02-21T04:14:06;11.15;;;3.20;;
80127;SDS011;69440;52.118;5.408;2024-02-21T04:16:33;10.68;;;3.50;;
80127;SDS011;69440;52.118;5.408;2024-02-21T04:19:01;8.02;;;3.28;;
80127;SDS011;69440;52.118;5.408;2024-02-21T04:21:28;11.40;;;3.80;;
80127;SDS011;69440;52.118;5.408;2024-02-21T04:23:55;9.30;;;3.47;;
80127;SDS011;69440;52.118;5.408;2024-02-21T04:26:21;8.98;;;3.47;;
80127;SDS011;69440;52.118;5.408;2024-02-21T04:28:48;8.75;;;3.25;;
80127;SDS011;69440;52.118;5.408;2024-02-21T04:31:15;8.43;;;3.78;;
80127;SDS011;69440;52.118;5.408;2024-02-21T04:33:41;8.32;;;3.88;;
80127;SDS011;69440;52.118;5.408;2024-02-21T04:36:08;7.70;;;3.80;;
80127;SDS011;69440;52.118;5.408;2024-02-21T04:38:34;9.50;;;3.60;;
80127;SDS011;69440;52.118;5.408;2024-02-21T04:41:01;12.05;;;3.60;;
80127;SDS011;69440;52.118;5.408;2024-02-21T04:43:27;8.38;;;3.53;;
80127;SDS011;69440;52.118;5.408;2024-02-21T04:45:54;7.35;;;3.35;;
80127;SDS011;69440;52.118;5.408;2024-02-21T04:48:20;7.93;;;3.65;;
80127;SDS011;69440;52.118;5.408;2024-02-21T04:50:47;9.07;;;3.55;;
80127;SDS011;69440;52.118;5.408;2024-02-21T04:53:13;8.80;;;3.65;;
80127;SDS011;69440;52.118;5.408;2024-02-21T04:55:40;7.43;;;3.70;;
80127;SDS011;69440;52.118;5.408;2024-02-21T04:58:07;8.43;;;3.90;;
80127;SDS011;69440;52.118;5.408;2024-02-21T05:00:34;9.73;;;3.58;;
80127;SDS011;69440;52.118;5.408;2024-02-21T05:03:00;8.15;;;3.80;;
80127;SDS011;69440;52.118;5.408;2024-02-21T05:05:27;5.28;;;3.10;;
80127;SDS011;69440;52.118;5.408;2024-02-21T05:07:54;8.10;;;3.95;;
80127;SDS011;69440;52.118;5.408;2024-02-21T05:10:20;6.90;;;3.70;;
80127;SDS011;69440;52.118;5.408;2024-02-21T05:12:47;8.57;;;3.92;;
80127;SDS011;69440;52.118;5.408;2024-02-21T05:15:13;7.60;;;3.80;;
80127;SDS011;69440;52.118;5.408;2024-02-21T05:17:40;7.30;;;4.10;;
80127;SDS011;69440;52.118;5.408;2024-02-21T05:20:07;10.38;;;4.63;;
80127;SDS011;69440;52.118;5.408;2024-02-21T05:22:34;11.40;;;4.38;;
80127;SDS011;69440;52.118;5.408;2024-02-21T05:25:00;10.25;;;4.15;;
80127;SDS011;69440;52.118;5.408;2024-02-21T05:27:27;9.07;;;4.15;;
80127;SDS011;69440;52.118;5.408;2024-02-21T05:29:53;7.65;;;4.07;;
80127;SDS011;69440;52.118;5.408;2024-02-21T05:32:20;11.30;;;4.05;;
80127;SDS011;69440;52.118;5.408;2024-02-21T05:34:49;10.00;;;4.22;;
80127;SDS011;69440;52.118;5.408;2024-02-21T05:37:17;8.05;;;3.80;;
80127;SDS011;69440;52.118;5.408;2024-02-21T05:39:43;8.27;;;3.55;;
80127;SDS011;69440;52.118;5.408;2024-02-21T05:42:10;8.05;;;4.05;;
80127;SDS011;69440;52.118;5.408;2024-02-21T05:44:36;8.02;;;3.78;;
80127;SDS011;69440;52.118;5.408;2024-02-21T05:47:03;9.40;;;4.47;;
80127;SDS011;69440;52.118;5.408;2024-02-21T05:49:29;12.27;;;4.00;;
80127;SDS011;69440;52.118;5.408;2024-02-21T05:51:56;8.30;;;3.90;;
80127;SDS011;69440;52.118;5.408;2024-02-21T05:54:22;6.93;;;3.75;;
80127;SDS011;69440;52.118;5.408;2024-02-21T05:56:49;7.95;;;3.88;;
80127;SDS011;69440;52.118;5.408;2024-02-21T05:59:16;9.82;;;4.13;;
80127;SDS011;69440;52.118;5.408;2024-02-21T06:01:42;6.18;;;4.00;;
80127;SDS011;69440;52.118;5.408;2024-02-21T06:04:09;13.23;;;5.10;;
80127;SDS011;69440;52.118;5.408;2024-02-21T06:06:35;9.32;;;4.47;;
80127;SDS011;69440;52.118;5.408;2024-02-21T06:09:02;10.60;;;4.32;;
80127;SDS011;69440;52.118;5.408;2024-02-21T06:11:29;10.57;;;4.28;;
80127;SDS011;69440;52.118;5.408;2024-02-21T06:13:56;9.57;;;4.40;;
80127;SDS011;69440;52.118;5.408;2024-02-21T06:16:22;8.60;;;4.32;;
80127;SDS011;69440;52.118;5.408;2024-02-21T06:18:49;10.00;;;4.63;;
80127;SDS011;69440;52.118;5.408;2024-02-21T06:21:15;9.68;;;4.53;;
80127;SDS011;69440;52.118;5.408;2024-02-21T06:23:42;12.90;;;6.03;;
80127;SDS011;69440;52.118;5.408;2024-02-21T06:26:09;11.40;;;5.40;;
80127;SDS011;69440;52.118;5.408;2024-02-21T06:28:36;10.95;;;5.97;;
80127;SDS011;69440;52.118;5.408;2024-02-21T06:31:02;14.70;;;6.13;;
80127;SDS011;69440;52.118;5.408;2024-02-21T06:33:29;9.80;;;5.85;;
80127;SDS011;69440;52.118;5.408;2024-02-21T06:35:56;10.75;;;5.22;;
80127;SDS011;69440;52.118;5.408;2024-02-21T06:38:23;15.23;;;6.95;;
80127;SDS011;69440;52.118;5.408;2024-02-21T06:40:49;11.23;;;5.82;;
80127;SDS011;69440;52.118;5.408;2024-02-21T06:43:19;14.95;;;6.10;;
80127;SDS011;69440;52.118;5.408;2024-02-21T06:45:46;14.00;;;6.70;;
80127;SDS011;69440;52.118;5.408;2024-02-21T06:48:20;17.08;;;6.88;;
80127;SDS011;69440;52.118;5.408;2024-02-21T06:50:47;18.25;;;7.05;;
80127;SDS011;69440;52.118;5.408;2024-02-21T06:53:13;17.70;;;7.53;;
80127;SDS011;69440;52.118;5.408;2024-02-21T06:55:40;17.52;;;6.90;;
80127;SDS011;69440;52.118;5.408;2024-02-21T06:58:06;17.10;;;7.65;;
80127;SDS011;69440;52.118;5.408;2024-02-21T07:00:38;16.08;;;7.20;;
80127;SDS011;69440;52.118;5.408;2024-02-21T07:03:05;18.38;;;7.45;;
80127;SDS011;69440;52.118;5.408;2024-02-21T07:05:32;14.00;;;7.22;;
80127;SDS011;69440;52.118;5.408;2024-02-21T07:07:59;19.88;;;7.70;;
80127;SDS011;69440;52.118;5.408;2024-02-21T07:10:25;14.75;;;7.45;;
80127;SDS011;69440;52.118;5.408;2024-02-21T07:12:56;19.25;;;8.02;;
80127;SDS011;69440;52.118;5.408;2024-02-21T07:15:22;15.57;;;7.40;;
80127;SDS011;69440;52.118;5.408;2024-02-21T07:17:52;16.45;;;7.45;;
80127;SDS011;69440;52.118;5.408;2024-02-21T07:20:19;18.92;;;7.63;;
80127;SDS011;69440;52.118;5.408;2024-02-21T07:22:46;15.40;;;6.97;;
80127;SDS011;69440;52.118;5.408;2024-02-21T07:25:12;15.65;;;6.95;;
80127;SDS011;69440;52.118;5.408;2024-02-21T07:27:39;17.10;;;6.78;;
80127;SDS011;69440;52.118;5.408;2024-02-21T07:30:06;16.92;;;6.63;;
80127;SDS011;69440;52.118;5.408;2024-02-21T07:32:33;13.68;;;6.20;;
80127;SDS011;69440;52.118;5.408;2024-02-21T07:34:59;14.35;;;6.50;;
80127;SDS011;69440;52.118;5.408;2024-02-21T07:37:26;15.45;;;6.57;;
80127;SDS011;69440;52.118;5.408;2024-02-21T07:39:56;14.80;;;6.15;;
80127;SDS011;69440;52.118;5.408;2024-02-21T07:42:23;15.38;;;6.07;;
80127;SDS011;69440;52.118;5.408;2024-02-21T07:44:49;17.88;;;6.55;;
80127;SDS011;69440;52.118;5.408;2024-02-21T07:47:16;15.90;;;5.50;;
80127;SDS011;69440;52.118;5.408;2024-02-21T07:49:43;15.05;;;6.00;;
80127;SDS011;69440;52.118;5.408;2024-02-21T07:52:11;13.60;;;5.90;;
80127;SDS011;69440;52.118;5.408;2024-02-21T07:54:37;14.55;;;5.90;;
80127;SDS011;69440;52.118;5.408;2024-02-21T07:57:04;12.23;;;5.63;;
80127;SDS011;69440;52.118;5.408;2024-02-21T07:59:30;14.18;;;5.38;;
80127;SDS011;69440;52.118;5.408;2024-02-21T08:01:57;11.55;;;5.30;;
80127;SDS011;69440;52.118;5.408;2024-02-21T08:04:26;11.88;;;5.72;;
80127;SDS011;69440;52.118;5.408;2024-02-21T08:06:53;12.63;;;5.75;;
80127;SDS011;69440;52.118;5.408;2024-02-21T08:09:22;14.57;;;5.60;;
80127;SDS011;69440;52.118;5.408;2024-02-21T08:11:49;10.98;;;5.65;;
80127;SDS011;69440;52.118;5.408;2024-02-21T08:14:15;13.70;;;5.88;;
80127;SDS011;69440;52.118;5.408;2024-02-21T08:16:46;13.93;;;6.05;;
80127;SDS011;69440;52.118;5.408;2024-02-21T08:19:13;14.80;;;6.07;;
80127;SDS011;69440;52.118;5.408;2024-02-21T08:21:40;14.48;;;5.70;;
80127;SDS011;69440;52.118;5.408;2024-02-21T08:24:06;11.63;;;6.40;;
80127;SDS011;69440;52.118;5.408;2024-02-21T08:26:33;18.05;;;6.78;;
80127;SDS011;69440;52.118;5.408;2024-02-21T08:28:59;12.32;;;6.28;;
80127;SDS011;69440;52.118;5.408;2024-02-21T08:31:27;14.60;;;6.60;;
80127;SDS011;69440;52.118;5.408;2024-02-21T08:34:01;14.40;;;6.43;;
80127;SDS011;69440;52.118;5.408;2024-02-21T08:36:30;15.57;;;6.55;;
80127;SDS011;69440;52.118;5.408;2024-02-21T08:38:58;19.58;;;7.10;;
80127;SDS011;69440;52.118;5.408;2024-02-21T08:41:26;14.15;;;6.55;;
80127;SDS011;69440;52.118;5.408;2024-02-21T08:44:13;15.30;;;6.97;;
80127;SDS011;69440;52.118;5.408;2024-02-21T08:46:39;16.38;;;7.03;;
80127;SDS011;69440;52.118;5.408;2024-02-21T08:49:06;14.80;;;6.35;;
80127;SDS011;69440;52.118;5.408;2024-02-21T08:51:33;14.43;;;6.15;;
80127;SDS011;69440;52.118;5.408;2024-02-21T08:54:00;13.32;;;6.32;;
80127;SDS011;69440;52.118;5.408;2024-02-21T08:56:27;14.73;;;6.28;;
80127;SDS011;69440;52.118;5.408;2024-02-21T08:58:56;13.93;;;6.43;;
80127;SDS011;69440;52.118;5.408;2024-02-21T09:01:24;12.55;;;5.95;;
80127;SDS011;69440;52.118;5.408;2024-02-21T09:03:50;11.68;;;6.90;;
80127;SDS011;69440;52.118;5.408;2024-02-21T09:06:20;14.63;;;6.20;;
80127;SDS011;69440;52.118;5.408;2024-02-21T09:08:47;12.82;;;5.63;;
80127;SDS011;69440;52.118;5.408;2024-02-21T09:11:13;12.10;;;5.60;;
80127;SDS011;69440;52.118;5.408;2024-02-21T09:13:40;11.70;;;5.63;;
80127;SDS011;69440;52.118;5.408;2024-02-21T09:16:06;11.77;;;5.68;;
80127;SDS011;69440;52.118;5.408;2024-02-21T09:18:33;10.82;;;5.28;;
80127;SDS011;69440;52.118;5.408;2024-02-21T09:20:59;10.93;;;5.22;;
80127;SDS011;69440;52.118;5.408;2024-02-21T09:23:26;13.82;;;5.15;;
80127;SDS011;69440;52.118;5.408;2024-02-21T09:25:53;10.63;;;4.97;;
80127;SDS011;69440;52.118;5.408;2024-02-21T09:28:21;12.20;;;5.88;;
80127;SDS011;69440;52.118;5.408;2024-02-21T09:30:49;13.65;;;5.38;;
80127;SDS011;69440;52.118;5.408;2024-02-21T09:33:15;14.27;;;5.88;;
80127;SDS011;69440;52.118;5.408;2024-02-21T09:35:57;10.50;;;4.93;;
80127;SDS011;69440;52.118;5.408;2024-02-21T09:38:23;14.77;;;5.32;;
80127;SDS011;69440;52.118;5.408;2024-02-21T09:40:58;9.73;;;4.80;;
80127;SDS011;69440;52.118;5.408;2024-02-21T09:43:27;9.65;;;5.18;;
80127;SDS011;69440;52.118;5.408;2024-02-21T09:45:55;10.80;;;5.20;;
80127;SDS011;69440;52.118;5.408;2024-02-21T09:51:01;11.20;;;4.72;;
80127;SDS011;69440;52.118;5.408;2024-02-21T09:53:28;9.02;;;4.75;;
80127;SDS011;69440;52.118;5.408;2024-02-21T09:55:57;8.30;;;4.43;;
80127;SDS011;69440;52.118;5.408;2024-02-21T09:58:25;8.40;;;4.30;;
80127;SDS011;69440;52.118;5.408;2024-02-21T10:00:53;10.32;;;4.80;;
80127;SDS011;69440;52.118;5.408;2024-02-21T10:03:20;12.00;;;4.65;;
80127;SDS011;69440;52.118;5.408;2024-02-21T10:05:48;9.98;;;4.30;;
80127;SDS011;69440;52.118;5.408;2024-02-21T10:08:19;11.38;;;4.57;;
80127;SDS011;69440;52.118;5.408;2024-02-21T10:10:46;8.05;;;3.88;;
80127;SDS011;69440;52.118;5.408;2024-02-21T10:13:26;9.00;;;4.25;;
80127;SDS011;69440;52.118;5.408;2024-02-21T10:16:03;8.70;;;3.72;;
80127;SDS011;69440;52.118;5.408;2024-02-21T10:18:31;10.80;;;4.72;;
80127;SDS011;69440;52.118;5.408;2024-02-21T10:21:03;9.95;;;3.80;;
80127;SDS011;69440;52.118;5.408;2024-02-21T10:23:40;11.07;;;4.00;;
80127;SDS011;69440;52.118;5.408;2024-02-21T10:26:19;8.82;;;3.83;;
80127;SDS011;69440;52.118;5.408;2024-02-21T10:28:50;8.95;;;4.28;;
80127;SDS011;69440;52.118;5.408;2024-02-21T10:31:21;6.95;;;3.88;;
80127;SDS011;69440;52.118;5.408;2024-02-21T10:34:01;9.13;;;3.75;;
80127;SDS011;69440;52.118;5.408;2024-02-21T10:36:32;7.30;;;3.55;;
80127;SDS011;69440;52.118;5.408;2024-02-21T10:39:01;7.95;;;3.25;;
80127;SDS011;69440;52.118;5.408;2024-02-21T10:41:27;7.97;;;3.72;;
80127;SDS011;69440;52.118;5.408;2024-02-21T10:43:55;6.35;;;3.15;;
80127;SDS011;69440;52.118;5.408;2024-02-21T10:46:23;6.20;;;3.75;;
80127;SDS011;69440;52.118;5.408;2024-02-21T10:48:56;6.15;;;3.10;;
80127;SDS011;69440;52.118;5.408;2024-02-21T10:51:33;5.97;;;3.28;;
80127;SDS011;69440;52.118;5.408;2024-02-21T10:56:35;5.57;;;2.95;;
80127;SDS011;69440;52.118;5.408;2024-02-21T10:59:06;7.10;;;3.10;;
80127;SDS011;69440;52.118;5.408;2024-02-21T11:01:34;5.20;;;3.03;;
80127;SDS011;69440;52.118;5.408;2024-02-21T11:04:10;8.65;;;3.35;;
80127;SDS011;69440;52.118;5.408;2024-02-21T11:06:38;7.63;;;3.53;;
80127;SDS011;69440;52.118;5.408;2024-02-21T11:09:08;5.28;;;3.25;;
80127;SDS011;69440;52.118;5.408;2024-02-21T11:11:55;6.82;;;3.35;;
80127;SDS011;69440;52.118;5.408;2024-02-21T11:14:22;6.18;;;3.58;;
80127;SDS011;69440;52.118;5.408;2024-02-21T11:16:48;5.75;;;3.83;;
80127;SDS011;69440;52.118;5.408;2024-02-21T11:19:19;7.03;;;3.97;;
80127;SDS011;69440;52.118;5.408;2024-02-21T11:21:53;5.60;;;3.67;;
80127;SDS011;69440;52.118;5.408;2024-02-21T11:26:54;5.85;;;3.70;;
80127;SDS011;69440;52.118;5.408;2024-02-21T11:29:24;7.80;;;4.13;;
80127;SDS011;69440;52.118;5.408;2024-02-21T11:31:51;7.53;;;4.05;;
80127;SDS011;69440;52.118;5.408;2024-02-21T11:34:18;6.60;;;3.78;;
80127;SDS011;69440;52.118;5.408;2024-02-21T11:36:46;5.75;;;3.53;;
80127;SDS011;69440;52.118;5.408;2024-02-21T11:39:20;6.90;;;3.72;;
80127;SDS011;69440;52.118;5.408;2024-02-21T11:42:01;7.00;;;3.50;;
80127;SDS011;69440;52.118;5.408;2024-02-21T11:44:31;8.88;;;4.00;;
80127;SDS011;69440;52.118;5.408;2024-02-21T11:46:58;6.05;;;4.03;;
80127;SDS011;69440;52.118;5.408;2024-02-21T11:49:25;6.65;;;3.72;;
80127;SDS011;69440;52.118;5.408;2024-02-21T11:51:59;8.45;;;4.32;;
80127;SDS011;69440;52.118;5.408;2024-02-21T11:54:27;6.53;;;4.00;;
80127;SDS011;69440;52.118;5.408;2024-02-21T11:56:54;6.88;;;4.45;;
80127;SDS011;69440;52.118;5.408;2024-02-21T11:59:20;8.55;;;4.47;;
80127;SDS011;69440;52.118;5.408;2024-02-21T12:01:50;7.55;;;4.28;;
80127;SDS011;69440;52.118;5.408;2024-02-21T12:04:20;10.80;;;4.80;;
80127;SDS011;69440;52.118;5.408;2024-02-21T12:06:47;8.00;;;4.55;;
80127;SDS011;69440;52.118;5.408;2024-02-21T12:09:14;8.32;;;4.35;;
80127;SDS011;69440;52.118;5.408;2024-02-21T12:11:44;7.05;;;4.43;;
80127;SDS011;69440;52.118;5.408;2024-02-21T12:14:16;8.57;;;4.28;;
80127;SDS011;69440;52.118;5.408;2024-02-21T12:16:42;8.65;;;4.10;;
80127;SDS011;69440;52.118;5.408;2024-02-21T12:19:14;8.57;;;4.63;;
80127;SDS011;69440;52.118;5.408;2024-02-21T12:21:43;8.45;;;4.15;;
80127;SDS011;69440;52.118;5.408;2024-02-21T12:24:26;6.88;;;3.90;;
80127;SDS011;69440;52.118;5.408;2024-02-21T12:26:54;10.43;;;4.78;;
80127;SDS011;69440;52.118;5.408;2024-02-21T12:29:23;8.73;;;4.10;;
80127;SDS011;69440;52.118;5.408;2024-02-21T12:31:53;8.15;;;4.20;;
80127;SDS011;69440;52.118;5.408;2024-02-21T12:34:27;8.48;;;3.70;;
80127;SDS011;69440;52.118;5.408;2024-02-21T12:37:10;8.85;;;3.78;;
80127;SDS011;69440;52.118;5.408;2024-02-21T12:39:39;8.63;;;4.07;;
80127;SDS011;69440;52.118;5.408;2024-02-21T12:42:05;7.97;;;3.72;;
80127;SDS011;69440;52.118;5.408;2024-02-21T12:44:32;9.32;;;4.07;;
80127;SDS011;69440;52.118;5.408;2024-02-21T12:47:00;9.70;;;3.50;;
80127;SDS011;69440;52.118;5.408;2024-02-21T12:49:27;5.88;;;3.80;;
80127;SDS011;69440;52.118;5.408;2024-02-21T12:51:55;7.43;;;3.45;;
80127;SDS011;69440;52.118;5.408;2024-02-21T12:54:22;5.72;;;3.50;;
80127;SDS011;69440;52.118;5.408;2024-02-21T12:56:48;11.73;;;3.30;;
80127;SDS011;69440;52.118;5.408;2024-02-21T12:59:16;7.22;;;3.78;;
80127;SDS011;69440;52.118;5.408;2024-02-21T13:01:42;8.15;;;3.55;;
80127;SDS011;69440;52.118;5.408;2024-02-21T13:04:09;5.30;;;3.30;;
80127;SDS011;69440;52.118;5.408;2024-02-21T13:06:35;7.38;;;3.20;;
80127;SDS011;69440;52.118;5.408;2024-02-21T13:09:03;6.07;;;2.90;;
80127;SDS011;69440;52.118;5.408;2024-02-21T13:11:36;6.65;;;3.13;;
80127;SDS011;69440;52.118;5.408;2024-02-21T13:14:04;5.13;;;2.85;;
80127;SDS011;69440;52.118;5.408;2024-02-21T13:16:30;6.75;;;2.97;;
80127;SDS011;69440;52.118;5.408;2024-02-21T13:18:57;5.30;;;3.05;;
80127;SDS011;69440;52.118;5.408;2024-02-21T13:21:24;6.68;;;3.72;;
80127;SDS011;69440;52.118;5.408;2024-02-21T13:23:50;8.90;;;3.22;;
80127;SDS011;69440;52.118;5.408;2024-02-21T13:26:16;8.50;;;2.72;;
80127;SDS011;69440;52.118;5.408;2024-02-21T13:28:43;7.78;;;2.95;;
80127;SDS011;69440;52.118;5.408;2024-02-21T13:31:11;5.90;;;2.88;;
80127;SDS011;69440;52.118;5.408;2024-02-21T13:33:38;6.55;;;2.60;;
80127;SDS011;69440;52.118;5.408;2024-02-21T13:36:05;6.20;;;2.67;;
80127;SDS011;69440;52.118;5.408;2024-02-21T13:38:31;8.85;;;3.03;;
80127;SDS011;69440;52.118;5.408;2024-02-21T13:41:00;7.90;;;3.08;;
80127;SDS011;69440;52.118;5.408;2024-02-21T13:43:27;6.03;;;2.50;;
80127;SDS011;69440;52.118;5.408;2024-02-21T13:45:58;4.72;;;2.60;;
80127;SDS011;69440;52.118;5.408;2024-02-21T13:48:25;5.20;;;2.50;;
80127;SDS011;69440;52.118;5.408;2024-02-21T13:50:56;5.72;;;2.47;;
80127;SDS011;69440;52.118;5.408;2024-02-21T13:53:25;6.18;;;2.70;;
80127;SDS011;69440;52.118;5.408;2024-02-21T13:55:51;5.95;;;2.60;;
80127;SDS011;69440;52.118;5.408;2024-02-21T13:58:21;7.40;;;2.83;;
80127;SDS011;69440;52.118;5.408;2024-02-21T14:00:48;7.55;;;2.80;;
80127;SDS011;69440;52.118;5.408;2024-02-21T14:03:14;8.70;;;2.88;;
80127;SDS011;69440;52.118;5.408;2024-02-21T14:05:41;6.80;;;2.60;;
80127;SDS011;69440;52.118;5.408;2024-02-21T14:08:08;7.18;;;2.85;;
80127;SDS011;69440;52.118;5.408;2024-02-21T14:10:35;4.70;;;2.53;;
80127;SDS011;69440;52.118;5.408;2024-02-21T14:13:03;8.70;;;2.70;;
80127;SDS011;69440;52.118;5.408;2024-02-21T14:15:30;5.97;;;2.35;;
80127;SDS011;69440;52.118;5.408;2024-02-21T14:17:56;6.15;;;2.60;;
80127;SDS011;69440;52.118;5.408;2024-02-21T14:20:23;5.65;;;2.50;;
80127;SDS011;69440;52.118;5.408;2024-02-21T14:22:50;5.18;;;2.50;;
80127;SDS011;69440;52.118;5.408;2024-02-21T14:25:16;5.93;;;2.60;;
80127;SDS011;69440;52.118;5.408;2024-02-21T14:27:46;5.13;;;2.42;;
80127;SDS011;69440;52.118;5.408;2024-02-21T14:30:12;7.20;;;2.28;;
80127;SDS011;69440;52.118;5.408;2024-02-21T14:32:40;5.80;;;2.40;;
80127;SDS011;69440;52.118;5.408;2024-02-21T14:35:10;6.80;;;2.50;;
80127;SDS011;69440;52.118;5.408;2024-02-21T14:37:37;4.57;;;2.45;;
80127;SDS011;69440;52.118;5.408;2024-02-21T14:40:04;5.50;;;2.45;;
80127;SDS011;69440;52.118;5.408;2024-02-21T14:42:32;4.90;;;2.42;;
80127;SDS011;69440;52.118;5.408;2024-02-21T14:44:59;5.78;;;2.08;;
80127;SDS011;69440;52.118;5.408;2024-02-21T14:47:31;5.53;;;2.33;;
80127;SDS011;69440;52.118;5.408;2024-02-21T14:49:58;8.27;;;2.70;;
80127;SDS011;69440;52.118;5.408;2024-02-21T14:52:25;5.35;;;2.63;;
80127;SDS011;69440;52.118;5.408;2024-02-21T14:54:54;5.53;;;2.42;;